sensor_id;sensor_type;location;lat;lon;timestamp;P1;durP1;ratioP1;P2;durP2;ratioP2
69305;SDS011;56427;51.580;4.656;2023-08-12T00:00:51;17.33;;;10.53;;
69305;SDS011;56427;51.580;4.656;2023-08-12T00:03:17;19.13;;;10.63;;
69305;SDS011;56427;51.580;4.656;2023-08-12T00:05:43;17.30;;;11.00;;
69305;SDS011;56427;51.580;4.656;2023-08-12T00:08:10;23.05;;;11.82;;
69305;SDS011;56427;51.580;4.656;2023-08-12T00:10:36;18.63;;;11.17;;
69305;SDS011;56427;51.580;4.656;2023-08-12T00:13:01;19.03;;;11.57;;
69305;SDS011;56427;51.580;4.656;2023-08-12T00:15:27;20.98;;;11.27;;
69305;SDS011;56427;51.580;4.656;2023-08-12T00:17:52;17.53;;;11.37;;
69305;SDS011;56427;51.580;4.656;2023-08-12T00:20:18;19.47;;;11.80;;
69305;SDS011;56427;51.580;4.656;2023-08-12T00:22:43;19.35;;;11.52;;
69305;SDS011;56427;51.580;4.656;2023-08-12T00:25:10;21.00;;;12.82;;
69305;SDS011;56427;51.580;4.656;2023-08-12T00:27:36;17.50;;;11.43;;
69305;SDS011;56427;51.580;4.656;2023-08-12T00:30:02;28.95;;;12.98;;
69305;SDS011;56427;51.580;4.656;2023-08-12T00:32:29;18.25;;;11.43;;
69305;SDS011;56427;51.580;4.656;2023-08-12T00:34:54;18.30;;;11.83;;
69305;SDS011;56427;51.580;4.656;2023-08-12T00:37:20;17.33;;;11.70;;
69305;SDS011;56427;51.580;4.656;2023-08-12T00:39:45;19.08;;;12.57;;
69305;SDS011;56427;51.580;4.656;2023-08-12T00:42:11;17.57;;;11.60;;
69305;SDS011;56427;51.580;4.656;2023-08-12T00:44:36;23.90;;;13.07;;
69305;SDS011;56427;51.580;4.656;2023-08-12T00:47:01;17.67;;;11.37;;
69305;SDS011;56427;51.580;4.656;2023-08-12T00:49:27;17.65;;;10.60;;
69305;SDS011;56427;51.580;4.656;2023-08-12T00:51:53;21.93;;;11.83;;
69305;SDS011;56427;51.580;4.656;2023-08-12T00:54:20;21.75;;;11.85;;
69305;SDS011;56427;51.580;4.656;2023-08-12T00:56:48;19.58;;;12.07;;
69305;SDS011;56427;51.580;4.656;2023-08-12T00:59:15;19.17;;;12.32;;
69305;SDS011;56427;51.580;4.656;2023-08-12T01:01:42;19.23;;;12.68;;
69305;SDS011;56427;51.580;4.656;2023-08-12T01:04:08;19.40;;;12.57;;
69305;SDS011;56427;51.580;4.656;2023-08-12T01:06:34;25.00;;;13.40;;
69305;SDS011;56427;51.580;4.656;2023-08-12T01:09:00;24.50;;;14.88;;
69305;SDS011;56427;51.580;4.656;2023-08-12T01:11:34;22.02;;;12.57;;
69305;SDS011;56427;51.580;4.656;2023-08-12T01:14:03;22.83;;;14.33;;
69305;SDS011;56427;51.580;4.656;2023-08-12T01:16:39;23.05;;;13.70;;
69305;SDS011;56427;51.580;4.656;2023-08-12T01:19:10;25.58;;;14.73;;
69305;SDS011;56427;51.580;4.656;2023-08-12T01:21:43;29.35;;;15.50;;
69305;SDS011;56427;51.580;4.656;2023-08-12T01:24:09;23.17;;;12.98;;
69305;SDS011;56427;51.580;4.656;2023-08-12T01:26:35;24.60;;;15.30;;
69305;SDS011;56427;51.580;4.656;2023-08-12T01:29:00;23.37;;;15.13;;
69305;SDS011;56427;51.580;4.656;2023-08-12T01:31:33;23.60;;;14.03;;
69305;SDS011;56427;51.580;4.656;2023-08-12T01:34:10;26.02;;;14.85;;
69305;SDS011;56427;51.580;4.656;2023-08-12T01:36:41;26.67;;;15.10;;
69305;SDS011;56427;51.580;4.656;2023-08-12T01:39:16;24.55;;;14.45;;
69305;SDS011;56427;51.580;4.656;2023-08-12T01:41:44;26.98;;;13.70;;
69305;SDS011;56427;51.580;4.656;2023-08-12T01:44:09;22.33;;;13.33;;
69305;SDS011;56427;51.580;4.656;2023-08-12T01:46:35;21.00;;;13.27;;
69305;SDS011;56427;51.580;4.656;2023-08-12T01:49:01;23.70;;;13.75;;
69305;SDS011;56427;51.580;4.656;2023-08-12T01:51:26;23.53;;;14.33;;
69305;SDS011;56427;51.580;4.656;2023-08-12T01:53:52;23.15;;;13.02;;
69305;SDS011;56427;51.580;4.656;2023-08-12T01:56:17;22.77;;;13.83;;
69305;SDS011;56427;51.580;4.656;2023-08-12T01:58:43;23.77;;;12.50;;
69305;SDS011;56427;51.580;4.656;2023-08-12T02:01:08;19.93;;;14.13;;
69305;SDS011;56427;51.580;4.656;2023-08-12T02:03:34;19.73;;;12.50;;
69305;SDS011;56427;51.580;4.656;2023-08-12T02:05:59;27.73;;;13.73;;
69305;SDS011;56427;51.580;4.656;2023-08-12T02:08:24;24.90;;;13.53;;
69305;SDS011;56427;51.580;4.656;2023-08-12T02:10:50;24.93;;;13.40;;
69305;SDS011;56427;51.580;4.656;2023-08-12T02:13:15;21.93;;;12.87;;
69305;SDS011;56427;51.580;4.656;2023-08-12T02:15:40;22.97;;;12.70;;
69305;SDS011;56427;51.580;4.656;2023-08-12T02:18:06;23.70;;;13.60;;
69305;SDS011;56427;51.580;4.656;2023-08-12T02:20:32;21.43;;;12.90;;
69305;SDS011;56427;51.580;4.656;2023-08-12T02:22:57;23.27;;;12.83;;
69305;SDS011;56427;51.580;4.656;2023-08-12T02:25:23;22.23;;;13.48;;
69305;SDS011;56427;51.580;4.656;2023-08-12T02:27:48;22.07;;;13.47;;
69305;SDS011;56427;51.580;4.656;2023-08-12T02:30:13;22.57;;;12.50;;
69305;SDS011;56427;51.580;4.656;2023-08-12T02:32:39;20.73;;;12.80;;
69305;SDS011;56427;51.580;4.656;2023-08-12T02:35:05;23.33;;;13.20;;
69305;SDS011;56427;51.580;4.656;2023-08-12T02:37:30;24.73;;;14.07;;
69305;SDS011;56427;51.580;4.656;2023-08-12T02:39:56;23.10;;;14.03;;
69305;SDS011;56427;51.580;4.656;2023-08-12T02:42:21;24.13;;;14.07;;
69305;SDS011;56427;51.580;4.656;2023-08-12T02:44:46;24.10;;;14.63;;
69305;SDS011;56427;51.580;4.656;2023-08-12T02:47:12;26.40;;;14.70;;
69305;SDS011;56427;51.580;4.656;2023-08-12T02:49:37;24.63;;;14.03;;
69305;SDS011;56427;51.580;4.656;2023-08-12T02:52:03;27.60;;;13.68;;
69305;SDS011;56427;51.580;4.656;2023-08-12T02:54:29;26.53;;;14.77;;
69305;SDS011;56427;51.580;4.656;2023-08-12T02:56:54;23.07;;;13.90;;
69305;SDS011;56427;51.580;4.656;2023-08-12T02:59:19;28.67;;;14.27;;
69305;SDS011;56427;51.580;4.656;2023-08-12T03:01:45;23.27;;;13.93;;
69305;SDS011;56427;51.580;4.656;2023-08-12T03:04:10;22.23;;;12.57;;
69305;SDS011;56427;51.580;4.656;2023-08-12T03:06:36;24.95;;;12.65;;
69305;SDS011;56427;51.580;4.656;2023-08-12T03:09:01;19.07;;;11.97;;
69305;SDS011;56427;51.580;4.656;2023-08-12T03:11:27;21.08;;;11.25;;
69305;SDS011;56427;51.580;4.656;2023-08-12T03:13:53;18.13;;;11.13;;
69305;SDS011;56427;51.580;4.656;2023-08-12T03:16:18;20.23;;;11.23;;
69305;SDS011;56427;51.580;4.656;2023-08-12T03:18:44;28.80;;;12.35;;
69305;SDS011;56427;51.580;4.656;2023-08-12T03:21:09;26.83;;;12.27;;
69305;SDS011;56427;51.580;4.656;2023-08-12T03:23:35;22.13;;;11.67;;
69305;SDS011;56427;51.580;4.656;2023-08-12T03:26:02;21.58;;;11.80;;
69305;SDS011;56427;51.580;4.656;2023-08-12T03:28:28;22.00;;;11.93;;
69305;SDS011;56427;51.580;4.656;2023-08-12T03:30:53;21.77;;;13.20;;
69305;SDS011;56427;51.580;4.656;2023-08-12T03:33:19;20.63;;;12.20;;
69305;SDS011;56427;51.580;4.656;2023-08-12T03:35:45;21.10;;;12.27;;
69305;SDS011;56427;51.580;4.656;2023-08-12T03:38:11;22.17;;;12.03;;
69305;SDS011;56427;51.580;4.656;2023-08-12T03:40:40;17.03;;;11.77;;
69305;SDS011;56427;51.580;4.656;2023-08-12T03:43:05;23.50;;;12.27;;
69305;SDS011;56427;51.580;4.656;2023-08-12T03:45:31;21.47;;;12.03;;
69305;SDS011;56427;51.580;4.656;2023-08-12T03:47:57;21.58;;;11.50;;
69305;SDS011;56427;51.580;4.656;2023-08-12T03:50:23;20.70;;;11.50;;
69305;SDS011;56427;51.580;4.656;2023-08-12T03:52:48;22.25;;;12.20;;
69305;SDS011;56427;51.580;4.656;2023-08-12T03:55:13;19.93;;;11.47;;
69305;SDS011;56427;51.580;4.656;2023-08-12T03:57:39;19.27;;;11.53;;
69305;SDS011;56427;51.580;4.656;2023-08-12T04:00:05;23.93;;;11.40;;
69305;SDS011;56427;51.580;4.656;2023-08-12T04:02:33;20.90;;;11.73;;
69305;SDS011;56427;51.580;4.656;2023-08-12T04:04:58;16.93;;;10.97;;
69305;SDS011;56427;51.580;4.656;2023-08-12T04:07:23;20.10;;;11.50;;
69305;SDS011;56427;51.580;4.656;2023-08-12T04:09:49;23.60;;;12.13;;
69305;SDS011;56427;51.580;4.656;2023-08-12T04:12:14;20.43;;;11.57;;
69305;SDS011;56427;51.580;4.656;2023-08-12T04:14:40;20.60;;;12.00;;
69305;SDS011;56427;51.580;4.656;2023-08-12T04:17:06;18.40;;;11.80;;
69305;SDS011;56427;51.580;4.656;2023-08-12T04:19:31;22.80;;;12.87;;
69305;SDS011;56427;51.580;4.656;2023-08-12T04:21:57;22.95;;;13.15;;
69305;SDS011;56427;51.580;4.656;2023-08-12T04:24:22;25.10;;;12.00;;
69305;SDS011;56427;51.580;4.656;2023-08-12T04:26:47;23.63;;;12.67;;
69305;SDS011;56427;51.580;4.656;2023-08-12T04:29:13;22.63;;;12.03;;
69305;SDS011;56427;51.580;4.656;2023-08-12T04:31:38;22.63;;;12.80;;
69305;SDS011;56427;51.580;4.656;2023-08-12T04:34:05;24.98;;;12.80;;
69305;SDS011;56427;51.580;4.656;2023-08-12T04:36:31;24.40;;;13.50;;
69305;SDS011;56427;51.580;4.656;2023-08-12T04:38:56;24.17;;;12.52;;
69305;SDS011;56427;51.580;4.656;2023-08-12T04:41:22;20.87;;;12.30;;
69305;SDS011;56427;51.580;4.656;2023-08-12T04:43:49;27.33;;;13.98;;
69305;SDS011;56427;51.580;4.656;2023-08-12T04:46:14;23.67;;;12.93;;
69305;SDS011;56427;51.580;4.656;2023-08-12T04:48:40;25.07;;;14.13;;
69305;SDS011;56427;51.580;4.656;2023-08-12T04:51:05;26.77;;;15.27;;
69305;SDS011;56427;51.580;4.656;2023-08-12T04:53:32;25.38;;;14.75;;
69305;SDS011;56427;51.580;4.656;2023-08-12T04:55:57;27.17;;;14.20;;
69305;SDS011;56427;51.580;4.656;2023-08-12T04:58:23;25.93;;;15.17;;
69305;SDS011;56427;51.580;4.656;2023-08-12T05:00:49;25.37;;;13.57;;
69305;SDS011;56427;51.580;4.656;2023-08-12T05:03:15;27.92;;;14.23;;
69305;SDS011;56427;51.580;4.656;2023-08-12T05:05:40;25.70;;;15.53;;
69305;SDS011;56427;51.580;4.656;2023-08-12T05:08:06;28.08;;;15.00;;
69305;SDS011;56427;51.580;4.656;2023-08-12T05:10:31;28.00;;;16.20;;
69305;SDS011;56427;51.580;4.656;2023-08-12T05:12:57;29.50;;;15.20;;
69305;SDS011;56427;51.580;4.656;2023-08-12T05:15:23;23.52;;;14.50;;
69305;SDS011;56427;51.580;4.656;2023-08-12T05:17:48;22.77;;;13.13;;
69305;SDS011;56427;51.580;4.656;2023-08-12T05:20:14;22.70;;;14.20;;
69305;SDS011;56427;51.580;4.656;2023-08-12T05:22:39;23.57;;;14.17;;
69305;SDS011;56427;51.580;4.656;2023-08-12T05:25:05;21.67;;;14.32;;
69305;SDS011;56427;51.580;4.656;2023-08-12T05:27:30;26.27;;;16.30;;
69305;SDS011;56427;51.580;4.656;2023-08-12T05:29:56;24.23;;;15.43;;
69305;SDS011;56427;51.580;4.656;2023-08-12T05:32:21;28.00;;;16.90;;
69305;SDS011;56427;51.580;4.656;2023-08-12T05:34:49;25.17;;;15.17;;
69305;SDS011;56427;51.580;4.656;2023-08-12T05:37:15;21.83;;;15.32;;
69305;SDS011;56427;51.580;4.656;2023-08-12T05:39:41;23.83;;;15.73;;
69305;SDS011;56427;51.580;4.656;2023-08-12T05:42:06;23.40;;;14.82;;
69305;SDS011;56427;51.580;4.656;2023-08-12T05:44:32;20.30;;;13.30;;
69305;SDS011;56427;51.580;4.656;2023-08-12T05:46:57;20.70;;;12.43;;
69305;SDS011;56427;51.580;4.656;2023-08-12T05:49:22;19.53;;;13.30;;
69305;SDS011;56427;51.580;4.656;2023-08-12T05:51:48;22.93;;;14.30;;
69305;SDS011;56427;51.580;4.656;2023-08-12T05:54:13;25.13;;;13.80;;
69305;SDS011;56427;51.580;4.656;2023-08-12T05:56:39;18.87;;;12.63;;
69305;SDS011;56427;51.580;4.656;2023-08-12T05:59:04;17.50;;;11.50;;
69305;SDS011;56427;51.580;4.656;2023-08-12T06:01:30;20.50;;;10.90;;
69305;SDS011;56427;51.580;4.656;2023-08-12T06:03:55;18.47;;;10.33;;
69305;SDS011;56427;51.580;4.656;2023-08-12T06:06:20;18.30;;;9.50;;
69305;SDS011;56427;51.580;4.656;2023-08-12T06:08:46;15.38;;;8.85;;
69305;SDS011;56427;51.580;4.656;2023-08-12T06:11:12;14.50;;;7.83;;
69305;SDS011;56427;51.580;4.656;2023-08-12T06:13:37;11.57;;;7.63;;
69305;SDS011;56427;51.580;4.656;2023-08-12T06:16:02;14.37;;;8.67;;
69305;SDS011;56427;51.580;4.656;2023-08-12T06:18:29;11.98;;;6.88;;
69305;SDS011;56427;51.580;4.656;2023-08-12T06:20:55;12.97;;;8.00;;
69305;SDS011;56427;51.580;4.656;2023-08-12T06:23:20;11.97;;;7.90;;
69305;SDS011;56427;51.580;4.656;2023-08-12T06:25:45;14.67;;;7.70;;
69305;SDS011;56427;51.580;4.656;2023-08-12T06:28:11;14.00;;;8.03;;
69305;SDS011;56427;51.580;4.656;2023-08-12T06:30:36;11.43;;;7.17;;
69305;SDS011;56427;51.580;4.656;2023-08-12T06:33:02;9.30;;;6.43;;
69305;SDS011;56427;51.580;4.656;2023-08-12T06:35:27;9.40;;;5.68;;
69305;SDS011;56427;51.580;4.656;2023-08-12T06:37:53;8.97;;;5.93;;
69305;SDS011;56427;51.580;4.656;2023-08-12T06:40:19;10.63;;;6.13;;
69305;SDS011;56427;51.580;4.656;2023-08-12T06:42:45;9.25;;;6.07;;
69305;SDS011;56427;51.580;4.656;2023-08-12T06:45:10;9.73;;;6.20;;
69305;SDS011;56427;51.580;4.656;2023-08-12T06:47:36;7.85;;;5.10;;
69305;SDS011;56427;51.580;4.656;2023-08-12T06:50:01;6.47;;;4.57;;
69305;SDS011;56427;51.580;4.656;2023-08-12T06:52:27;6.97;;;5.57;;
69305;SDS011;56427;51.580;4.656;2023-08-12T06:54:52;7.45;;;4.85;;
69305;SDS011;56427;51.580;4.656;2023-08-12T06:57:18;8.77;;;5.40;;
69305;SDS011;56427;51.580;4.656;2023-08-12T06:59:43;11.77;;;6.77;;
69305;SDS011;56427;51.580;4.656;2023-08-12T07:02:09;10.20;;;6.28;;
69305;SDS011;56427;51.580;4.656;2023-08-12T07:04:34;9.13;;;6.07;;
69305;SDS011;56427;51.580;4.656;2023-08-12T07:07:00;9.23;;;6.17;;
69305;SDS011;56427;51.580;4.656;2023-08-12T07:09:25;9.53;;;5.73;;
69305;SDS011;56427;51.580;4.656;2023-08-12T07:11:50;7.97;;;6.05;;
69305;SDS011;56427;51.580;4.656;2023-08-12T07:14:16;10.40;;;6.60;;
69305;SDS011;56427;51.580;4.656;2023-08-12T07:16:42;7.43;;;5.47;;
69305;SDS011;56427;51.580;4.656;2023-08-12T07:19:07;9.63;;;6.68;;
69305;SDS011;56427;51.580;4.656;2023-08-12T07:21:32;8.07;;;5.97;;
69305;SDS011;56427;51.580;4.656;2023-08-12T07:23:58;10.87;;;7.20;;
69305;SDS011;56427;51.580;4.656;2023-08-12T07:26:23;8.27;;;6.73;;
69305;SDS011;56427;51.580;4.656;2023-08-12T07:28:49;8.13;;;6.60;;
69305;SDS011;56427;51.580;4.656;2023-08-12T07:31:14;8.05;;;5.90;;
69305;SDS011;56427;51.580;4.656;2023-08-12T07:33:39;7.20;;;5.93;;
69305;SDS011;56427;51.580;4.656;2023-08-12T07:36:05;6.60;;;2.47;;
69305;SDS011;56427;51.580;4.656;2023-08-12T07:38:30;5.20;;;1.90;;
69305;SDS011;56427;51.580;4.656;2023-08-12T07:40:56;6.00;;;1.63;;
69305;SDS011;56427;51.580;4.656;2023-08-12T07:43:22;4.37;;;1.57;;
69305;SDS011;56427;51.580;4.656;2023-08-12T07:45:51;5.23;;;1.67;;
69305;SDS011;56427;51.580;4.656;2023-08-12T07:48:17;5.67;;;1.57;;
69305;SDS011;56427;51.580;4.656;2023-08-12T07:50:44;4.78;;;1.50;;
69305;SDS011;56427;51.580;4.656;2023-08-12T07:53:09;6.20;;;1.70;;
69305;SDS011;56427;51.580;4.656;2023-08-12T07:55:35;5.75;;;1.63;;
69305;SDS011;56427;51.580;4.656;2023-08-12T07:58:00;8.90;;;2.10;;
69305;SDS011;56427;51.580;4.656;2023-08-12T08:00:26;7.85;;;1.80;;
69305;SDS011;56427;51.580;4.656;2023-08-12T08:02:51;6.30;;;1.90;;
69305;SDS011;56427;51.580;4.656;2023-08-12T08:05:17;6.07;;;1.67;;
69305;SDS011;56427;51.580;4.656;2023-08-12T08:07:42;7.45;;;2.42;;
69305;SDS011;56427;51.580;4.656;2023-08-12T08:10:08;5.13;;;1.70;;
69305;SDS011;56427;51.580;4.656;2023-08-12T08:12:34;6.83;;;1.93;;
69305;SDS011;56427;51.580;4.656;2023-08-12T08:14:59;4.88;;;1.92;;
69305;SDS011;56427;51.580;4.656;2023-08-12T08:17:24;7.73;;;1.70;;
69305;SDS011;56427;51.580;4.656;2023-08-12T08:19:50;8.50;;;1.70;;
69305;SDS011;56427;51.580;4.656;2023-08-12T08:22:16;5.85;;;2.20;;
69305;SDS011;56427;51.580;4.656;2023-08-12T08:24:41;8.10;;;1.57;;
69305;SDS011;56427;51.580;4.656;2023-08-12T08:27:07;7.87;;;1.80;;
69305;SDS011;56427;51.580;4.656;2023-08-12T08:29:32;8.80;;;2.20;;
69305;SDS011;56427;51.580;4.656;2023-08-12T08:31:58;10.32;;;2.40;;
69305;SDS011;56427;51.580;4.656;2023-08-12T08:34:23;10.37;;;1.97;;
69305;SDS011;56427;51.580;4.656;2023-08-12T08:36:49;9.23;;;1.80;;
69305;SDS011;56427;51.580;4.656;2023-08-12T08:39:15;9.25;;;1.85;;
69305;SDS011;56427;51.580;4.656;2023-08-12T08:41:41;11.05;;;2.42;;
69305;SDS011;56427;51.580;4.656;2023-08-12T08:44:08;8.05;;;2.00;;
69305;SDS011;56427;51.580;4.656;2023-08-12T08:46:34;7.20;;;1.70;;
69305;SDS011;56427;51.580;4.656;2023-08-12T08:49:00;6.22;;;1.42;;
69305;SDS011;56427;51.580;4.656;2023-08-12T08:51:27;6.00;;;1.67;;
69305;SDS011;56427;51.580;4.656;2023-08-12T08:53:55;5.88;;;1.48;;
69305;SDS011;56427;51.580;4.656;2023-08-12T08:56:21;9.15;;;1.85;;
69305;SDS011;56427;51.580;4.656;2023-08-12T08:58:48;8.23;;;2.03;;
69305;SDS011;56427;51.580;4.656;2023-08-12T09:01:14;8.27;;;1.43;;
69305;SDS011;56427;51.580;4.656;2023-08-12T09:03:42;7.53;;;1.80;;
69305;SDS011;56427;51.580;4.656;2023-08-12T09:06:08;8.35;;;2.17;;
69305;SDS011;56427;51.580;4.656;2023-08-12T09:08:34;6.50;;;1.47;;
69305;SDS011;56427;51.580;4.656;2023-08-12T09:11:02;5.97;;;1.55;;
69305;SDS011;56427;51.580;4.656;2023-08-12T09:13:28;8.07;;;1.65;;
69305;SDS011;56427;51.580;4.656;2023-08-12T09:15:54;7.80;;;1.58;;
69305;SDS011;56427;51.580;4.656;2023-08-12T09:18:20;9.37;;;2.43;;
69305;SDS011;56427;51.580;4.656;2023-08-12T09:20:49;9.73;;;3.30;;
69305;SDS011;56427;51.580;4.656;2023-08-12T09:23:18;8.63;;;2.72;;
69305;SDS011;56427;51.580;4.656;2023-08-12T09:25:43;8.07;;;2.70;;
69305;SDS011;56427;51.580;4.656;2023-08-12T09:28:10;5.80;;;1.73;;
69305;SDS011;56427;51.580;4.656;2023-08-12T09:30:36;11.17;;;2.70;;
69305;SDS011;56427;51.580;4.656;2023-08-12T09:33:03;10.52;;;2.95;;
69305;SDS011;56427;51.580;4.656;2023-08-12T09:35:36;12.63;;;3.85;;
69305;SDS011;56427;51.580;4.656;2023-08-12T09:38:03;13.77;;;4.35;;
69305;SDS011;56427;51.580;4.656;2023-08-12T09:40:33;13.35;;;3.35;;
69305;SDS011;56427;51.580;4.656;2023-08-12T09:42:59;10.93;;;3.10;;
69305;SDS011;56427;51.580;4.656;2023-08-12T09:45:25;7.50;;;2.65;;
69305;SDS011;56427;51.580;4.656;2023-08-12T09:47:55;12.23;;;3.22;;
69305;SDS011;56427;51.580;4.656;2023-08-12T09:50:21;9.07;;;2.25;;
69305;SDS011;56427;51.580;4.656;2023-08-12T09:52:48;6.18;;;2.25;;
69305;SDS011;56427;51.580;4.656;2023-08-12T09:55:16;8.87;;;2.67;;
69305;SDS011;56427;51.580;4.656;2023-08-12T09:57:43;15.85;;;3.47;;
69305;SDS011;56427;51.580;4.656;2023-08-12T10:00:10;14.55;;;3.38;;
69305;SDS011;56427;51.580;4.656;2023-08-12T10:02:41;8.65;;;2.50;;
69305;SDS011;56427;51.580;4.656;2023-08-12T10:05:08;8.82;;;2.83;;
69305;SDS011;56427;51.580;4.656;2023-08-12T10:07:36;11.37;;;2.60;;
69305;SDS011;56427;51.580;4.656;2023-08-12T10:10:02;13.57;;;3.50;;
69305;SDS011;56427;51.580;4.656;2023-08-12T10:12:30;10.07;;;3.45;;
69305;SDS011;56427;51.580;4.656;2023-08-12T10:14:56;10.60;;;2.50;;
69305;SDS011;56427;51.580;4.656;2023-08-12T10:17:23;9.05;;;2.20;;
69305;SDS011;56427;51.580;4.656;2023-08-12T10:19:54;9.00;;;2.03;;
69305;SDS011;56427;51.580;4.656;2023-08-12T10:22:21;7.22;;;2.15;;
69305;SDS011;56427;51.580;4.656;2023-08-12T10:24:46;6.60;;;2.08;;
69305;SDS011;56427;51.580;4.656;2023-08-12T10:27:14;8.05;;;2.00;;
69305;SDS011;56427;51.580;4.656;2023-08-12T10:29:42;8.77;;;2.30;;
69305;SDS011;56427;51.580;4.656;2023-08-12T10:32:08;7.68;;;2.10;;
69305;SDS011;56427;51.580;4.656;2023-08-12T10:34:34;8.68;;;2.05;;
69305;SDS011;56427;51.580;4.656;2023-08-12T10:37:02;8.13;;;2.07;;
69305;SDS011;56427;51.580;4.656;2023-08-12T10:39:28;13.32;;;2.45;;
69305;SDS011;56427;51.580;4.656;2023-08-12T10:41:57;8.70;;;2.40;;
69305;SDS011;56427;51.580;4.656;2023-08-12T10:44:26;13.25;;;3.17;;
69305;SDS011;56427;51.580;4.656;2023-08-12T10:47:05;11.17;;;2.60;;
69305;SDS011;56427;51.580;4.656;2023-08-12T10:49:37;8.05;;;2.40;;
69305;SDS011;56427;51.580;4.656;2023-08-12T10:52:07;13.38;;;2.40;;
69305;SDS011;56427;51.580;4.656;2023-08-12T10:54:54;8.35;;;2.28;;
69305;SDS011;56427;51.580;4.656;2023-08-12T10:57:34;13.17;;;2.50;;
69305;SDS011;56427;51.580;4.656;2023-08-12T11:00:03;14.90;;;2.72;;
69305;SDS011;56427;51.580;4.656;2023-08-12T11:02:32;9.20;;;2.85;;
69305;SDS011;56427;51.580;4.656;2023-08-12T11:07:43;6.13;;;2.22;;
69305;SDS011;56427;51.580;4.656;2023-08-12T11:10:14;7.20;;;2.10;;
69305;SDS011;56427;51.580;4.656;2023-08-12T11:12:41;8.10;;;2.20;;
69305;SDS011;56427;51.580;4.656;2023-08-12T11:15:14;9.25;;;2.33;;
69305;SDS011;56427;51.580;4.656;2023-08-12T11:17:40;9.63;;;2.20;;
69305;SDS011;56427;51.580;4.656;2023-08-12T11:20:10;10.02;;;2.20;;
69305;SDS011;56427;51.580;4.656;2023-08-12T11:22:37;9.35;;;2.22;;
69305;SDS011;56427;51.580;4.656;2023-08-12T11:25:05;10.32;;;2.40;;
69305;SDS011;56427;51.580;4.656;2023-08-12T11:27:46;6.75;;;2.03;;
69305;SDS011;56427;51.580;4.656;2023-08-12T11:30:14;7.67;;;2.00;;
69305;SDS011;56427;51.580;4.656;2023-08-12T11:32:44;12.40;;;2.53;;
69305;SDS011;56427;51.580;4.656;2023-08-12T11:35:11;7.25;;;2.08;;
69305;SDS011;56427;51.580;4.656;2023-08-12T11:37:38;7.00;;;1.65;;
69305;SDS011;56427;51.580;4.656;2023-08-12T11:40:05;8.63;;;2.10;;
69305;SDS011;56427;51.580;4.656;2023-08-12T11:42:34;7.40;;;1.90;;
69305;SDS011;56427;51.580;4.656;2023-08-12T11:45:00;7.72;;;2.15;;
69305;SDS011;56427;51.580;4.656;2023-08-12T11:47:25;9.87;;;2.23;;
69305;SDS011;56427;51.580;4.656;2023-08-12T11:49:52;6.70;;;2.10;;
69305;SDS011;56427;51.580;4.656;2023-08-12T11:52:18;9.48;;;2.28;;
69305;SDS011;56427;51.580;4.656;2023-08-12T11:54:45;11.05;;;2.40;;
69305;SDS011;56427;51.580;4.656;2023-08-12T11:57:10;7.77;;;2.03;;
69305;SDS011;56427;51.580;4.656;2023-08-12T11:59:36;8.27;;;2.30;;
69305;SDS011;56427;51.580;4.656;2023-08-12T12:02:02;7.33;;;2.00;;
69305;SDS011;56427;51.580;4.656;2023-08-12T12:04:30;8.85;;;1.98;;
69305;SDS011;56427;51.580;4.656;2023-08-12T12:06:56;7.90;;;2.20;;
69305;SDS011;56427;51.580;4.656;2023-08-12T12:09:22;8.17;;;1.93;;
69305;SDS011;56427;51.580;4.656;2023-08-12T12:11:51;8.73;;;2.10;;
69305;SDS011;56427;51.580;4.656;2023-08-12T12:14:18;11.52;;;2.35;;
69305;SDS011;56427;51.580;4.656;2023-08-12T12:16:45;10.57;;;2.05;;
69305;SDS011;56427;51.580;4.656;2023-08-12T12:19:21;7.65;;;2.00;;
69305;SDS011;56427;51.580;4.656;2023-08-12T12:21:48;9.30;;;2.40;;
69305;SDS011;56427;51.580;4.656;2023-08-12T12:24:15;9.37;;;2.40;;
69305;SDS011;56427;51.580;4.656;2023-08-12T12:26:41;10.13;;;2.60;;
69305;SDS011;56427;51.580;4.656;2023-08-12T12:29:07;7.95;;;2.58;;
69305;SDS011;56427;51.580;4.656;2023-08-12T12:31:33;8.77;;;2.50;;
69305;SDS011;56427;51.580;4.656;2023-08-12T12:34:03;11.40;;;2.20;;
69305;SDS011;56427;51.580;4.656;2023-08-12T12:36:30;9.23;;;2.30;;
69305;SDS011;56427;51.580;4.656;2023-08-12T12:38:56;6.05;;;2.17;;
69305;SDS011;56427;51.580;4.656;2023-08-12T12:41:21;8.73;;;2.17;;
69305;SDS011;56427;51.580;4.656;2023-08-12T12:43:47;8.83;;;2.00;;
69305;SDS011;56427;51.580;4.656;2023-08-12T12:46:12;10.13;;;2.67;;
69305;SDS011;56427;51.580;4.656;2023-08-12T12:48:38;12.02;;;2.10;;
69305;SDS011;56427;51.580;4.656;2023-08-12T12:51:03;7.57;;;2.17;;
69305;SDS011;56427;51.580;4.656;2023-08-12T12:53:29;10.98;;;2.40;;
69305;SDS011;56427;51.580;4.656;2023-08-12T12:55:54;8.60;;;2.30;;
69305;SDS011;56427;51.580;4.656;2023-08-12T12:58:22;8.85;;;2.30;;
69305;SDS011;56427;51.580;4.656;2023-08-12T13:00:48;8.87;;;2.43;;
69305;SDS011;56427;51.580;4.656;2023-08-12T13:03:14;6.03;;;2.20;;
69305;SDS011;56427;51.580;4.656;2023-08-12T13:05:40;12.38;;;2.78;;
69305;SDS011;56427;51.580;4.656;2023-08-12T13:08:05;7.93;;;2.63;;
69305;SDS011;56427;51.580;4.656;2023-08-12T13:10:31;9.60;;;2.90;;
69305;SDS011;56427;51.580;4.656;2023-08-12T13:12:56;8.57;;;3.00;;
69305;SDS011;56427;51.580;4.656;2023-08-12T13:15:22;9.63;;;2.90;;
69305;SDS011;56427;51.580;4.656;2023-08-12T13:17:49;8.98;;;3.25;;
69305;SDS011;56427;51.580;4.656;2023-08-12T13:20:14;8.23;;;3.40;;
69305;SDS011;56427;51.580;4.656;2023-08-12T13:22:40;10.38;;;3.67;;
69305;SDS011;56427;51.580;4.656;2023-08-12T13:25:05;6.97;;;3.07;;
69305;SDS011;56427;51.580;4.656;2023-08-12T13:27:31;9.50;;;3.53;;
69305;SDS011;56427;51.580;4.656;2023-08-12T13:29:56;9.10;;;3.25;;
69305;SDS011;56427;51.580;4.656;2023-08-12T13:32:22;8.37;;;3.13;;
69305;SDS011;56427;51.580;4.656;2023-08-12T13:34:47;10.70;;;3.33;;
69305;SDS011;56427;51.580;4.656;2023-08-12T13:37:13;9.40;;;2.83;;
69305;SDS011;56427;51.580;4.656;2023-08-12T13:39:39;9.70;;;2.95;;
69305;SDS011;56427;51.580;4.656;2023-08-12T13:42:04;8.02;;;2.78;;
69305;SDS011;56427;51.580;4.656;2023-08-12T13:44:30;8.90;;;2.50;;
69305;SDS011;56427;51.580;4.656;2023-08-12T13:46:55;6.40;;;2.30;;
69305;SDS011;56427;51.580;4.656;2023-08-12T13:49:20;7.23;;;2.23;;
69305;SDS011;56427;51.580;4.656;2023-08-12T13:51:46;8.87;;;2.50;;
69305;SDS011;56427;51.580;4.656;2023-08-12T13:54:11;9.93;;;2.30;;
69305;SDS011;56427;51.580;4.656;2023-08-12T13:56:37;8.03;;;2.50;;
69305;SDS011;56427;51.580;4.656;2023-08-12T13:59:02;5.80;;;2.00;;
69305;SDS011;56427;51.580;4.656;2023-08-12T14:01:27;7.40;;;2.23;;
69305;SDS011;56427;51.580;4.656;2023-08-12T14:03:53;8.10;;;3.00;;
69305;SDS011;56427;51.580;4.656;2023-08-12T14:06:18;8.83;;;2.63;;
69305;SDS011;56427;51.580;4.656;2023-08-12T14:08:44;8.13;;;3.10;;
69305;SDS011;56427;51.580;4.656;2023-08-12T14:11:09;8.23;;;2.60;;
69305;SDS011;56427;51.580;4.656;2023-08-12T14:13:34;10.70;;;3.88;;
69305;SDS011;56427;51.580;4.656;2023-08-12T14:16:00;12.90;;;4.20;;
69305;SDS011;56427;51.580;4.656;2023-08-12T14:18:25;12.03;;;3.90;;
69305;SDS011;56427;51.580;4.656;2023-08-12T14:20:50;8.73;;;3.50;;
69305;SDS011;56427;51.580;4.656;2023-08-12T14:23:16;11.38;;;3.33;;
69305;SDS011;56427;51.580;4.656;2023-08-12T14:25:41;8.77;;;2.90;;
69305;SDS011;56427;51.580;4.656;2023-08-12T14:28:07;11.63;;;2.80;;
69305;SDS011;56427;51.580;4.656;2023-08-12T14:30:32;10.87;;;2.70;;